Pagrindinis puslapis
METAR-TAF:

METAR-TAF

Oro uostai :

Karsas, Turkija

platuma: 40-36N, ilguma: 043-05E, Aukštis: 1775 m

Dabartinis oras

Ataskaita buvo paskelbta 1 valandą ir 18 minutes, ne 23:50 UTC
Vėjas 4 kt iš Šiaurės Vakarų, svyruoja nuo Vakarų ir Šiaurės
Temperatūra 4°C
Drėgmė 56%
Slėgis 1022 hPa
Matomumas 10 km arba daugiau
Išsisklaidę debesys ne aukštis 3500 ft
Su prošvaistėmis ne aukštis 7000 ft

METAR: LTCF 312350Z 32004KT 270V350 9999 SCT035 BKN070 04/M04 Q1022

Laikas: 04:08 (01:08 UTC)

Prognozė

Ataskaita buvo paskelbta 2 valandos ir 28 minutes, ne 22:40 UTC
Prognozė galioja nuo 01 metu 00 UTC su 01 metu 09 UTC
Vėjas 2 kt nuo kintamojo kryptimis
Matomumas 10 km arba daugiau
Išsisklaidę debesys ne aukštis 3500 ft
Su prošvaistėmis ne aukštis 7000 ft

TAF: LTCF 312240Z 0100/0109 VRB02KT 9999 SCT035 BKN070

Orai ataskaitas ir orų prognozės (METAR, TAF).

turimą stotys yra geltonos ir raudonos taškus žemėlapyje.

Perkelti pele per norėdami pamatyti stoties vardą.

Tada spustelėkite, norėdami matyti oro stebėjimo ir prognozės.

Norėdami pakeisti žemėlapį: spustelėkite ant žalios mygtukų su juodo kryžiaus žemyn,; žalią mygtuką su brūkšneliu, jei norite nutolinti; arba žalių rodyklių gretimoms žemėlapius.


METAR-TAF: